Time;durP1;ratioP1;P1;durP2;ratioP2;P2;SDS_P1;SDS_P2;PMS_P1;PMS_P2;Temp;Humidity;BMP_temperature;BMP_pressure;BME280_temperature;BME280_humidity;BME280_pressure;Samples;Min_cycle;Max_cycle;Signal;HPM_P1;HPM_P2
2021/07/17 00:00:19;;;;;;;34.55;15.88;;;19.70;99.90;;;;;;5030036;28;20064;-71
2021/07/17 00:02:44;;;;;;;33.55;15.65;;;19.70;99.90;;;;;;5028263;28;20079;-71
2021/07/17 00:05:13;;;;;;;35.20;15.75;;;19.70;99.90;;;;;;5024657;28;20022;-71
2021/07/17 00:07:39;;;;;;;34.03;15.07;;;19.70;99.90;;;;;;5020645;28;20029;-72
2021/07/17 00:10:36;;;;;;;27.65;15.23;;;19.60;99.90;;;;;;5024738;28;20052;-72
2021/07/17 00:13:02;;;;;;;36.40;15.23;;;19.60;99.90;;;;;;5021118;28;20026;-71
2021/07/17 00:15:28;;;;;;;32.03;15.68;;;19.60;99.90;;;;;;5022093;28;20061;-71
2021/07/17 00:17:54;;;;;;;40.40;16.63;;;19.60;99.90;;;;;;5017787;28;20054;-70
2021/07/17 00:20:20;;;;;;;28.33;14.32;;;19.60;99.90;;;;;;5019635;28;20029;-71
2021/07/17 00:22:46;;;;;;;36.15;14.90;;;19.60;99.90;;;;;;5019467;28;20519;-71
2021/07/17 00:25:15;;;;;;;45.85;18.52;;;19.60;99.90;;;;;;5021010;28;20037;-71
2021/07/17 00:27:41;;;;;;;33.03;16.98;;;19.40;99.90;;;;;;5021342;28;20045;-71
2021/07/17 00:30:07;;;;;;;38.20;17.02;;;19.40;99.90;;;;;;5024891;28;20477;-71
2021/07/17 00:32:33;;;;;;;40.40;16.85;;;19.50;99.90;;;;;;5023535;28;20033;-71
2021/07/17 00:34:59;;;;;;;37.75;17.17;;;19.50;99.90;;;;;;5021442;28;20022;-71
2021/07/17 00:37:25;;;;;;;36.70;15.88;;;19.50;99.90;;;;;;5022638;28;20040;-72
2021/07/17 00:39:52;;;;;;;47.70;16.58;;;19.50;99.90;;;;;;5022433;28;20101;-71
2021/07/17 00:42:18;;;;;;;28.33;16.08;;;19.60;99.90;;;;;;5018388;28;20026;-71
2021/07/17 00:44:44;;;;;;;31.27;16.27;;;19.50;99.90;;;;;;5022613;28;20088;-71
2021/07/17 00:47:13;;;;;;;34.45;15.60;;;19.60;99.90;;;;;;5017122;28;20034;-71
2021/07/17 00:49:39;;;;;;;33.90;14.05;;;19.60;99.90;;;;;;5024651;28;20017;-71
2021/07/17 00:52:05;;;;;;;35.22;15.60;;;19.50;99.90;;;;;;5018262;28;20124;-70
2021/07/17 00:54:31;;;;;;;35.13;16.15;;;19.60;99.90;;;;;;5024469;28;20527;-72
2021/07/17 00:57:00;;;;;;;30.40;14.73;;;19.60;99.90;;;;;;5020925;28;20033;-71
2021/07/17 00:59:28;;;;;;;33.13;16.48;;;19.60;99.90;;;;;;5029297;28;20116;-72
2021/07/17 01:01:57;;;;;;;25.40;15.00;;;19.50;99.90;;;;;;5024739;28;20033;-71
2021/07/17 01:04:24;;;;;;;41.60;16.10;;;19.40;99.90;;;;;;5026180;28;20104;-71
2021/07/17 01:06:51;;;;;;;35.50;15.55;;;19.40;99.90;;;;;;5025791;28;20065;-71
2021/07/17 01:09:17;;;;;;;33.78;15.85;;;19.50;99.90;;;;;;5023309;28;20370;-71
2021/07/17 01:11:43;;;;;;;41.55;17.65;;;19.50;99.90;;;;;;5026630;28;20028;-70
2021/07/17 01:14:09;;;;;;;38.20;16.27;;;19.50;99.90;;;;;;5028847;28;20022;-72
2021/07/17 01:16:36;;;;;;;30.27;14.70;;;19.50;99.90;;;;;;5022867;28;20096;-71
2021/07/17 01:19:02;;;;;;;34.10;16.15;;;19.50;99.90;;;;;;5027369;28;20072;-71
2021/07/17 01:21:29;;;;;;;37.15;16.73;;;19.50;99.90;;;;;;5033840;28;20470;-72
2021/07/17 01:23:55;;;;;;;48.38;17.40;;;19.60;99.90;;;;;;5033223;28;20033;-71
2021/07/17 01:26:22;;;;;;;27.20;14.82;;;19.60;99.90;;;;;;5031420;28;20048;-71
2021/07/17 01:28:47;;;;;;;32.42;17.58;;;19.50;99.90;;;;;;5032324;28;20057;-71
2021/07/17 01:31:15;;;;;;;38.15;15.93;;;19.50;99.90;;;;;;5032840;28;20123;-71
2021/07/17 01:33:41;;;;;;;36.08;16.40;;;19.50;99.90;;;;;;5027929;28;20474;-71
2021/07/17 01:36:06;;;;;;;46.50;16.50;;;19.50;99.90;;;;;;5031409;28;20028;-71
2021/07/17 01:38:32;;;;;;;37.63;14.60;;;19.50;99.90;;;;;;5034373;28;20017;-71
2021/07/17 01:40:58;;;;;;;42.10;16.92;;;19.50;99.90;;;;;;5031318;28;20032;-71
2021/07/17 01:43:24;;;;;;;33.17;17.20;;;19.50;99.90;;;;;;5033196;28;20017;-71
2021/07/17 01:45:49;;;;;;;35.20;16.65;;;19.50;99.90;;;;;;5026997;28;20496;-71
2021/07/17 01:48:15;;;;;;;37.35;17.05;;;19.40;99.90;;;;;;5028781;28;20509;-71
2021/07/17 01:50:43;;;;;;;35.65;15.95;;;19.30;99.90;;;;;;5027430;28;20100;-71
2021/07/17 01:53:10;;;;;;;36.25;17.02;;;19.40;99.90;;;;;;5026362;28;20057;-72
2021/07/17 01:55:37;;;;;;;44.17;17.15;;;19.40;99.90;;;;;;5026283;28;20026;-71
2021/07/17 01:58:07;;;;;;;38.58;18.23;;;19.40;99.90;;;;;;5029300;28;20033;-71
2021/07/17 02:00:32;;;;;;;40.58;17.27;;;19.40;99.90;;;;;;5025597;28;20049;-71
2021/07/17 02:02:58;;;;;;;35.13;16.45;;;19.40;99.90;;;;;;5027296;28;20769;-71
2021/07/17 02:05:24;;;;;;;32.75;16.02;;;19.30;99.90;;;;;;5030868;28;20025;-72
2021/07/17 02:07:51;;;;;;;32.58;16.00;;;19.30;99.90;;;;;;5029881;28;20029;-71
2021/07/17 02:10:21;;;;;;;36.67;17.50;;;19.30;99.90;;;;;;5032513;28;20358;-72
2021/07/17 02:13:04;;;;;;;43.95;18.38;;;19.30;99.90;;;;;;5031593;28;20384;-71
2021/07/17 02:15:47;;;;;;;40.80;16.45;;;19.40;99.90;;;;;;5025982;28;20033;-71
2021/07/17 02:18:14;;;;;;;38.20;16.23;;;19.40;99.90;;;;;;5032340;28;20560;-72
2021/07/17 02:20:41;;;;;;;47.33;18.23;;;19.30;99.90;;;;;;5025638;28;20010;-72
2021/07/17 02:23:08;;;;;;;36.42;16.35;;;19.40;99.90;;;;;;5032724;28;20064;-72
2021/07/17 02:25:34;;;;;;;36.70;16.58;;;19.40;99.90;;;;;;5032693;28;20109;-72
2021/07/17 02:28:00;;;;;;;40.80;16.15;;;19.40;99.90;;;;;;5028082;28;20029;-72
2021/07/17 02:30:26;;;;;;;29.27;16.70;;;19.30;99.90;;;;;;5032477;28;20702;-71
2021/07/17 02:32:52;;;;;;;34.00;17.33;;;19.30;99.90;;;;;;5033392;28;20017;-71
2021/07/17 02:35:18;;;;;;;43.88;17.27;;;19.40;99.90;;;;;;5025156;28;20437;-71
2021/07/17 02:37:43;;;;;;;45.30;18.30;;;19.30;99.90;;;;;;5030810;28;20018;-71
2021/07/17 02:40:09;;;;;;;40.38;16.85;;;19.40;99.90;;;;;;5031384;28;20653;-70
2021/07/17 02:42:36;;;;;;;32.58;15.88;;;19.40;99.90;;;;;;5032212;28;20028;-71
2021/07/17 02:45:05;;;;;;;37.53;17.83;;;19.40;99.90;;;;;;5026454;28;20437;-71
2021/07/17 02:47:31;;;;;;;43.92;17.92;;;19.40;99.90;;;;;;5025908;28;20587;-71
2021/07/17 02:49:56;;;;;;;40.65;19.08;;;19.30;99.90;;;;;;5025142;28;20037;-71
2021/07/17 02:52:22;;;;;;;47.63;17.33;;;19.30;99.90;;;;;;5028073;28;20116;-71
2021/07/17 02:54:48;;;;;;;39.92;18.30;;;19.30;99.90;;;;;;5028863;28;20034;-71
2021/07/17 02:57:13;;;;;;;37.60;17.65;;;19.30;99.90;;;;;;5028314;28;20022;-71
2021/07/17 02:59:39;;;;;;;49.08;19.20;;;19.30;99.90;;;;;;5030151;28;20021;-71
2021/07/17 03:02:06;;;;;;;43.67;19.48;;;19.40;99.90;;;;;;5031943;28;20049;-71
2021/07/17 03:04:32;;;;;;;33.55;17.80;;;19.20;99.90;;;;;;5031971;28;20079;-71
2021/07/17 03:06:57;;;;;;;42.92;20.40;;;19.20;99.90;;;;;;5030838;28;20041;-71
2021/07/17 03:09:23;;;;;;;35.55;18.25;;;19.30;99.90;;;;;;5029101;28;20097;-71
2021/07/17 03:11:48;;;;;;;43.00;17.85;;;19.30;99.90;;;;;;5028378;28;20030;-71
2021/07/17 03:14:14;;;;;;;45.67;18.25;;;19.30;99.90;;;;;;5028037;28;20101;-71
2021/07/17 03:16:42;;;;;;;39.92;17.13;;;19.30;99.90;;;;;;5022457;28;20528;-71
2021/07/17 03:19:08;;;;;;;43.53;18.27;;;19.40;99.90;;;;;;5026790;28;20442;-71
2021/07/17 03:21:33;;;;;;;36.03;15.88;;;19.40;99.90;;;;;;5027448;28;20030;-71
2021/07/17 03:23:59;;;;;;;53.15;19.42;;;19.40;99.90;;;;;;5028156;28;20026;-71
2021/07/17 03:26:25;;;;;;;34.33;17.00;;;19.40;99.90;;;;;;5026550;28;20037;-71
2021/07/17 03:28:51;;;;;;;36.45;17.67;;;19.30;99.90;;;;;;5027359;28;20036;-73
2021/07/17 03:31:16;;;;;;;35.25;16.20;;;19.30;99.90;;;;;;5028153;28;20390;-71
2021/07/17 03:33:42;;;;;;;35.20;17.42;;;19.30;99.90;;;;;;5030985;28;20374;-71
2021/07/17 03:36:08;;;;;;;29.95;15.77;;;19.40;99.90;;;;;;5029012;28;20028;-71
2021/07/17 03:38:34;;;;;;;36.40;18.70;;;19.40;99.90;;;;;;5025170;28;20509;-71
2021/07/17 03:41:00;;;;;;;39.13;16.42;;;19.30;99.90;;;;;;5045791;28;20022;-71
2021/07/17 03:43:25;;;;;;;36.50;17.02;;;19.20;99.90;;;;;;5031678;28;20486;-71
2021/07/17 03:45:51;;;;;;;37.92;16.77;;;19.20;99.90;;;;;;5031666;28;20018;-71
2021/07/17 03:48:16;;;;;;;41.92;17.85;;;19.20;99.90;;;;;;5027891;28;20046;-71
2021/07/17 03:50:42;;;;;;;40.22;16.60;;;19.20;99.90;;;;;;5029383;28;20126;-71
2021/07/17 03:53:08;;;;;;;40.63;16.50;;;19.20;99.90;;;;;;5027686;28;20032;-71
2021/07/17 03:55:33;;;;;;;45.30;18.52;;;19.30;99.90;;;;;;5028494;28;20018;-71
2021/07/17 03:57:59;;;;;;;41.10;17.92;;;19.30;99.90;;;;;;5030996;28;20429;-72
2021/07/17 04:00:25;;;;;;;39.92;18.00;;;19.30;99.90;;;;;;5030382;28;20452;-72
2021/07/17 04:02:50;;;;;;;32.55;16.92;;;19.20;99.90;;;;;;5026982;28;20053;-71
2021/07/17 04:05:19;;;;;;;36.25;17.77;;;19.20;99.90;;;;;;5027532;28;20425;-72
2021/07/17 04:07:45;;;;;;;34.95;17.40;;;19.20;99.90;;;;;;5028510;28;20048;-71
2021/07/17 04:10:13;;;;;;;38.67;17.00;;;19.20;99.90;;;;;;5030453;28;20499;-71
2021/07/17 04:12:39;;;;;;;33.25;16.30;;;19.30;99.90;;;;;;5031374;28;20022;-71
2021/07/17 04:15:06;;;;;;;40.58;19.00;;;19.30;99.90;;;;;;5030462;28;20028;-71
2021/07/17 04:17:32;;;;;;;38.00;16.83;;;19.30;99.90;;;;;;5028324;28;20424;-72
2021/07/17 04:19:58;;;;;;;37.47;17.35;;;19.30;99.90;;;;;;5024161;28;20026;-72
2021/07/17 04:22:23;;;;;;;32.17;15.95;;;19.30;99.90;;;;;;5027118;28;20026;-72
2021/07/17 04:24:49;;;;;;;34.05;17.92;;;19.30;99.90;;;;;;5019463;28;20463;-71
2021/07/17 04:27:15;;;;;;;39.40;18.00;;;19.30;99.90;;;;;;5028686;28;20034;-71
2021/07/17 04:29:41;;;;;;;39.03;16.95;;;19.30;99.90;;;;;;5030802;28;20029;-71
2021/07/17 04:32:07;;;;;;;38.03;16.88;;;19.30;99.90;;;;;;5029614;28;20354;-71
2021/07/17 04:34:33;;;;;;;38.63;17.17;;;19.30;99.90;;;;;;5030924;28;20076;-71
2021/07/17 04:36:59;;;;;;;44.83;16.65;;;19.30;99.90;;;;;;5025644;28;20063;-72
2021/07/17 04:39:25;;;;;;;39.55;18.35;;;19.30;99.90;;;;;;5030748;28;20025;-71
2021/07/17 04:41:52;;;;;;;42.75;17.17;;;19.30;99.90;;;;;;5026212;28;20064;-71
2021/07/17 04:44:18;;;;;;;41.42;17.38;;;19.30;99.90;;;;;;5028038;28;20024;-71
2021/07/17 04:46:43;;;;;;;32.72;16.58;;;19.40;99.90;;;;;;5031053;28;20034;-72
2021/07/17 04:49:09;;;;;;;38.83;18.80;;;19.30;99.90;;;;;;5029142;28;20018;-71
2021/07/17 04:51:35;;;;;;;36.17;17.00;;;19.40;99.90;;;;;;5032195;28;20060;-71
2021/07/17 04:54:00;;;;;;;42.38;16.95;;;19.30;99.90;;;;;;5026909;28;20026;-71
2021/07/17 04:56:26;;;;;;;41.10;17.50;;;19.30;99.90;;;;;;5033196;28;20033;-71
2021/07/17 04:58:52;;;;;;;41.17;17.48;;;19.20;99.90;;;;;;5034451;28;20022;-71
2021/07/17 05:01:18;;;;;;;35.75;17.38;;;19.20;99.90;;;;;;5034470;28;20636;-71
2021/07/17 05:03:44;;;;;;;34.78;16.38;;;19.30;99.90;;;;;;5029192;28;20021;-71
2021/07/17 05:06:10;;;;;;;37.03;15.55;;;19.30;99.90;;;;;;5033514;28;20025;-71
2021/07/17 05:08:36;;;;;;;39.90;17.02;;;19.30;99.90;;;;;;5027778;28;20041;-71
2021/07/17 05:11:02;;;;;;;41.90;17.25;;;19.40;99.90;;;;;;5034673;28;20024;-71
2021/07/17 05:13:28;;;;;;;40.42;17.55;;;19.40;99.90;;;;;;5031795;28;20467;-71
2021/07/17 05:15:53;;;;;;;33.67;15.45;;;19.40;99.90;;;;;;5033256;28;20080;-71
2021/07/17 05:18:21;;;;;;;37.33;16.55;;;19.30;99.90;;;;;;5028694;28;20033;-71
2021/07/17 05:20:47;;;;;;;36.85;16.58;;;19.30;99.90;;;;;;5031598;28;20021;-71
2021/07/17 05:23:12;;;;;;;38.53;15.77;;;19.30;99.90;;;;;;5034436;28;20036;-71
2021/07/17 05:25:38;;;;;;;34.03;16.33;;;19.30;99.90;;;;;;5034344;28;20029;-71
2021/07/17 05:28:04;;;;;;;35.60;15.73;;;19.30;99.90;;;;;;5027952;28;20032;-71
2021/07/17 05:30:30;;;;;;;37.70;16.83;;;19.30;99.90;;;;;;5033799;28;20687;-71
2021/07/17 05:32:56;;;;;;;37.85;16.50;;;19.20;99.90;;;;;;5033696;28;20139;-71
2021/07/17 05:35:22;;;;;;;36.33;16.27;;;19.30;99.90;;;;;;5033782;28;20820;-71
2021/07/17 05:37:48;;;;;;;34.65;15.10;;;19.30;99.90;;;;;;5034446;28;20036;-72
2021/07/17 05:40:14;;;;;;;39.85;14.88;;;19.20;99.90;;;;;;5032785;28;20406;-72
2021/07/17 05:42:40;;;;;;;38.15;14.35;;;19.20;99.90;;;;;;5028263;28;20398;-71
2021/07/17 05:45:06;;;;;;;29.48;14.90;;;19.20;99.90;;;;;;5034204;28;20034;-71
2021/07/17 05:47:32;;;;;;;28.45;14.68;;;19.30;99.90;;;;;;5026295;28;20033;-71
2021/07/17 05:49:58;;;;;;;36.10;15.45;;;19.30;99.90;;;;;;5031513;28;20366;-71
2021/07/17 05:52:23;;;;;;;38.20;14.23;;;19.30;99.90;;;;;;5034018;28;20435;-72
2021/07/17 05:54:49;;;;;;;29.70;14.48;;;19.40;99.90;;;;;;5033422;28;20052;-72
2021/07/17 05:57:14;;;;;;;32.22;14.30;;;19.40;99.90;;;;;;5027674;28;20030;-71
2021/07/17 05:59:40;;;;;;;26.75;12.65;;;19.30;99.90;;;;;;5031257;28;20518;-72
2021/07/17 06:02:06;;;;;;;26.25;13.20;;;19.40;99.90;;;;;;5033381;28;20055;-77
2021/07/17 06:04:32;;;;;;;32.45;15.13;;;19.40;99.90;;;;;;5029607;28;20039;-75
2021/07/17 06:06:58;;;;;;;34.25;14.02;;;19.50;99.90;;;;;;5031036;28;20116;-76
2021/07/17 06:09:24;;;;;;;30.40;13.75;;;19.60;99.90;;;;;;5027991;28;20025;-77
2021/07/17 06:11:51;;;;;;;30.55;12.80;;;19.60;99.90;;;;;;5032533;28;20022;-74
2021/07/17 06:14:16;;;;;;;31.92;13.25;;;19.60;99.90;;;;;;5033650;28;20026;-71
2021/07/17 06:16:42;;;;;;;34.40;15.95;;;19.60;99.90;;;;;;5034340;28;20044;-71
2021/07/17 06:19:08;;;;;;;34.17;12.90;;;19.60;99.90;;;;;;5027861;28;20075;-71
2021/07/17 06:21:34;;;;;;;31.85;13.88;;;19.60;99.90;;;;;;5032853;28;20470;-71
2021/07/17 06:24:00;;;;;;;32.22;13.68;;;19.60;99.90;;;;;;5033162;28;20064;-72
2021/07/17 06:26:26;;;;;;;35.65;14.88;;;19.60;99.90;;;;;;5032630;28;20033;-71
2021/07/17 06:28:51;;;;;;;34.05;13.63;;;19.60;99.90;;;;;;5027730;28;20033;-71
2021/07/17 06:31:19;;;;;;;26.33;12.77;;;19.70;99.90;;;;;;5033285;28;20021;-72
2021/07/17 06:33:47;;;;;;;26.02;13.38;;;19.70;99.90;;;;;;5031038;28;20049;-72
2021/07/17 06:36:14;;;;;;;27.52;12.13;;;19.60;99.90;;;;;;5028835;28;20048;-71
2021/07/17 06:38:40;;;;;;;34.08;15.05;;;19.60;99.90;;;;;;5031892;28;20058;-71
2021/07/17 06:41:05;;;;;;;27.45;14.98;;;19.70;99.90;;;;;;5028039;28;20029;-71
2021/07/17 06:43:31;;;;;;;30.92;14.23;;;19.70;99.90;;;;;;5032870;28;20021;-71
2021/07/17 06:45:57;;;;;;;35.95;13.98;;;19.80;99.90;;;;;;5033159;28;20046;-71
2021/07/17 06:48:23;;;;;;;27.95;14.23;;;19.80;99.90;;;;;;5027814;28;20504;-71
2021/07/17 06:50:49;;;;;;;33.83;15.35;;;19.90;99.90;;;;;;5031259;28;20033;-72
2021/07/17 06:53:15;;;;;;;31.90;14.48;;;19.80;99.90;;;;;;5032318;28;20041;-72
2021/07/17 06:55:41;;;;;;;26.30;13.98;;;19.90;99.90;;;;;;5030033;28;20025;-72
2021/07/17 06:58:08;;;;;;;28.63;13.68;;;19.90;99.90;;;;;;5031264;28;20022;-71
2021/07/17 07:00:35;;;;;;;28.42;14.20;;;19.90;99.90;;;;;;5027438;28;20025;-71
2021/07/17 07:03:02;;;;;;;28.23;13.30;;;20.00;99.90;;;;;;5029915;28;20044;-72
2021/07/17 07:05:28;;;;;;;31.70;14.45;;;20.10;99.90;;;;;;5032528;28;20045;-71
2021/07/17 07:07:54;;;;;;;40.53;14.75;;;20.10;99.90;;;;;;5031157;28;20506;-71
2021/07/17 07:10:20;;;;;;;30.10;14.98;;;20.10;99.90;;;;;;5029833;28;20486;-71
2021/07/17 07:12:45;;;;;;;38.88;14.75;;;20.10;99.90;;;;;;5027517;28;20087;-72
2021/07/17 07:15:11;;;;;;;32.42;14.35;;;20.30;99.90;;;;;;5026823;28;20030;-72
2021/07/17 07:17:38;;;;;;;29.90;15.35;;;20.40;99.90;;;;;;5030549;28;20061;-71
2021/07/17 07:20:09;;;;;;;35.47;14.88;;;20.30;99.90;;;;;;5032808;28;20021;-71
2021/07/17 07:22:35;;;;;;;33.00;14.23;;;20.30;99.90;;;;;;5027638;28;20092;-71
2021/07/17 07:25:03;;;;;;;32.10;13.85;;;20.30;99.90;;;;;;5030996;28;20393;-71
2021/07/17 07:27:28;;;;;;;23.65;12.35;;;20.30;99.90;;;;;;5028329;28;20473;-71
2021/07/17 07:29:54;;;;;;;36.28;13.50;;;20.30;99.90;;;;;;5031517;28;20079;-71
2021/07/17 07:32:20;;;;;;;25.67;12.60;;;20.30;99.90;;;;;;5027943;28;20033;-71
2021/07/17 07:34:45;;;;;;;32.45;13.38;;;20.30;99.90;;;;;;5029824;28;20085;-72
2021/07/17 07:37:11;;;;;;;37.05;13.43;;;20.30;99.90;;;;;;5023027;28;20101;-71
2021/07/17 07:39:37;;;;;;;31.55;12.93;;;20.40;99.90;;;;;;5022810;28;20484;-71
2021/07/17 07:42:03;;;;;;;34.22;13.82;;;20.60;99.90;;;;;;5025360;28;20032;-71
2021/07/17 07:44:30;;;;;;;33.45;13.48;;;20.80;99.90;;;;;;5023807;28;20420;-71
2021/07/17 07:46:55;;;;;;;34.67;14.10;;;21.00;99.90;;;;;;5027959;28;21151;-71
2021/07/17 07:49:21;;;;;;;37.95;13.00;;;21.10;99.90;;;;;;5023990;28;20049;-72
2021/07/17 07:51:47;;;;;;;27.75;12.40;;;21.30;99.90;;;;;;5031838;28;20059;-72
2021/07/17 07:54:13;;;;;;;22.58;10.65;;;21.20;99.90;;;;;;5031896;28;20057;-72
2021/07/17 07:56:39;;;;;;;22.45;11.18;;;21.20;99.90;;;;;;5031889;28;20059;-73
2021/07/17 07:59:05;;;;;;;26.75;10.50;;;21.10;99.90;;;;;;5028808;28;20512;-71
2021/07/17 08:01:30;;;;;;;26.65;11.45;;;21.20;99.90;;;;;;5030196;28;20021;-73
2021/07/17 08:03:56;;;;;;;25.88;11.98;;;21.10;99.90;;;;;;5031145;28;20155;-72
2021/07/17 08:06:22;;;;;;;20.17;10.65;;;21.10;99.90;;;;;;5031449;28;20025;-72
2021/07/17 08:08:47;;;;;;;24.50;10.93;;;21.20;99.90;;;;;;5026062;28;20032;-72
2021/07/17 08:11:13;;;;;;;27.90;12.50;;;21.20;99.90;;;;;;5030248;28;20021;-71
2021/07/17 08:13:39;;;;;;;28.58;11.55;;;21.20;99.90;;;;;;5031122;28;20032;-72
2021/07/17 08:16:05;;;;;;;22.60;10.15;;;21.20;99.90;;;;;;5031955;28;20022;-71
2021/07/17 08:18:31;;;;;;;19.85;9.25;;;21.20;99.90;;;;;;5026409;28;20516;-71
2021/07/17 08:20:57;;;;;;;23.70;9.63;;;21.20;99.90;;;;;;5029600;28;20033;-72
2021/07/17 08:23:24;;;;;;;21.73;9.48;;;21.20;99.90;;;;;;5029993;28;20026;-72
2021/07/17 08:25:50;;;;;;;25.63;8.95;;;21.30;99.90;;;;;;5031500;28;20037;-72
2021/07/17 08:28:16;;;;;;;21.63;8.90;;;21.40;99.90;;;;;;5035563;28;20029;-71
2021/07/17 08:30:42;;;;;;;20.33;8.80;;;21.40;99.90;;;;;;5035334;28;20032;-72
2021/07/17 08:33:08;;;;;;;24.52;9.07;;;21.40;99.90;;;;;;5035759;28;20018;-73
2021/07/17 08:35:34;;;;;;;24.25;9.95;;;21.50;99.90;;;;;;5035233;28;20104;-73
2021/07/17 08:38:00;;;;;;;24.77;9.38;;;21.50;99.90;;;;;;5031172;28;21758;-71
2021/07/17 08:40:27;;;;;;;23.95;9.77;;;21.70;99.90;;;;;;5032238;28;20037;-72
2021/07/17 08:42:53;;;;;;;25.60;11.02;;;21.80;99.90;;;;;;5033732;28;20104;-72
2021/07/17 08:45:20;;;;;;;19.38;8.55;;;21.80;99.90;;;;;;5033985;28;20108;-72
2021/07/17 08:47:46;;;;;;;25.23;9.60;;;21.90;99.90;;;;;;5030892;28;20091;-71
2021/07/17 08:50:18;;;;;;;22.13;8.30;;;21.80;99.90;;;;;;5029254;28;20032;-71
2021/07/17 08:52:44;;;;;;;22.15;9.57;;;22.00;99.90;;;;;;5033131;28;20029;-72
2021/07/17 08:55:11;;;;;;;31.30;8.40;;;21.90;99.90;;;;;;5031816;28;20014;-72
2021/07/17 08:57:43;;;;;;;16.45;8.43;;;22.10;99.90;;;;;;5032320;28;20037;-72
2021/07/17 09:00:13;;;;;;;19.95;8.80;;;22.30;99.90;;;;;;5030696;28;20088;-71
2021/07/17 09:02:44;;;;;;;21.75;8.70;;;22.40;99.90;;;;;;5033766;28;20470;-70
2021/07/17 09:05:12;;;;;;;17.63;7.20;;;22.40;99.90;;;;;;5025022;28;20108;-71
2021/07/17 09:07:39;;;;;;;22.30;8.20;;;22.50;99.90;;;;;;5034029;28;20033;-71
2021/07/17 09:10:30;;;;;;;19.85;8.45;;;22.60;99.90;;;;;;5033694;28;20025;-72
2021/07/17 09:13:10;;;;;;;19.45;7.78;;;22.80;99.90;;;;;;5033164;28;20045;-72
2021/07/17 09:15:39;;;;;;;19.38;8.00;;;22.90;99.90;;;;;;5029455;28;20556;-71
2021/07/17 09:18:05;;;;;;;17.77;7.60;;;23.00;99.90;;;;;;5034661;28;20022;-71
2021/07/17 09:20:31;;;;;;;14.10;6.55;;;23.10;99.90;;;;;;5023862;28;20029;-72
2021/07/17 09:23:01;;;;;;;18.85;7.43;;;23.20;99.90;;;;;;5033240;28;20103;-71
2021/07/17 09:25:39;;;;;;;15.27;6.45;;;23.30;99.90;;;;;;5033270;28;20180;-71
2021/07/17 09:28:14;;;;;;;13.23;5.97;;;23.30;99.90;;;;;;5027319;28;20033;-71
2021/07/17 09:30:44;;;;;;;15.90;6.35;;;23.50;99.90;;;;;;5030533;28;20033;-71
2021/07/17 09:33:11;;;;;;;17.48;6.63;;;23.50;99.90;;;;;;5029422;28;20018;-71
2021/07/17 09:35:41;;;;;;;19.65;6.47;;;23.50;99.90;;;;;;5028175;28;20060;-71
2021/07/17 09:38:08;;;;;;;13.57;5.38;;;23.70;99.90;;;;;;5027061;28;20381;-71
2021/07/17 09:40:44;;;;;;;12.63;5.95;;;23.80;99.90;;;;;;5024896;28;20029;-73
2021/07/17 09:43:10;;;;;;;12.98;5.57;;;24.00;99.90;;;;;;5021921;28;20029;-71
2021/07/17 09:45:38;;;;;;;16.45;5.28;;;24.10;99.90;;;;;;5031276;28;20037;-71
2021/07/17 09:48:24;;;;;;;13.00;5.38;;;24.30;99.90;;;;;;5031517;28;20466;-71
2021/07/17 09:50:52;;;;;;;7.70;4.95;;;24.40;99.90;;;;;;5032744;28;20059;-71
2021/07/17 09:53:36;;;;;;;9.00;5.15;;;24.60;99.90;;;;;;5032173;28;20112;-72
2021/07/17 09:56:07;;;;;;;8.25;4.30;;;24.80;99.90;;;;;;5026784;28;20087;-72
2021/07/17 09:58:32;;;;;;;11.75;5.50;;;24.80;99.90;;;;;;5026420;28;20033;-71
2021/07/17 10:01:33;;;;;;;12.50;5.70;;;24.90;99.90;;;;;;5027214;28;20014;-72
2021/07/17 10:04:10;;;;;;;9.32;4.57;;;25.00;99.90;;;;;;5029190;28;20432;-72
2021/07/17 10:06:40;;;;;;;8.77;5.13;;;25.00;99.90;;;;;;5031975;28;20034;-73
2021/07/17 10:09:22;;;;;;;7.20;4.28;;;25.00;99.90;;;;;;5028018;28;20071;-71
2021/07/17 10:11:54;;;;;;;11.23;5.50;;;25.00;99.90;;;;;;5024288;28;20068;-72
2021/07/17 10:14:21;;;;;;;7.75;4.60;;;25.00;99.90;;;;;;5026915;28;20466;-71
2021/07/17 10:16:49;;;;;;;9.70;4.70;;;24.80;99.90;;;;;;5028794;28;20018;-73
2021/07/17 10:19:16;;;;;;;8.90;5.05;;;25.00;99.90;;;;;;5032886;28;20026;-71
2021/07/17 10:21:42;;;;;;;12.88;5.47;;;25.10;99.90;;;;;;5032922;28;20028;-71
2021/07/17 10:24:10;;;;;;;10.98;5.00;;;25.20;99.90;;;;;;5029658;28;20044;-71
2021/07/17 10:26:37;;;;;;;8.10;4.40;;;25.10;99.90;;;;;;5037033;28;20266;-70
2021/07/17 10:29:07;;;;;;;10.52;4.95;;;25.10;99.90;;;;;;5032297;28;20470;-70
2021/07/17 10:31:34;;;;;;;7.07;3.75;;;25.30;99.90;;;;;;5032773;28;20021;-71
2021/07/17 10:33:59;;;;;;;10.82;4.70;;;25.30;99.90;;;;;;5023938;28;20041;-71
2021/07/17 10:36:25;;;;;;;7.55;4.85;;;25.60;99.90;;;;;;5032022;28;20053;-71
2021/07/17 10:38:57;;;;;;;5.45;3.97;;;25.50;99.90;;;;;;5027600;28;20029;-71
2021/07/17 10:41:24;;;;;;;7.13;4.60;;;25.50;99.90;;;;;;5031935;28;20389;-72
2021/07/17 10:43:52;;;;;;;7.65;3.78;;;25.60;99.90;;;;;;5026878;28;20034;-71
2021/07/17 10:46:33;;;;;;;7.70;4.43;;;25.60;99.90;;;;;;5031979;28;20065;-71
2021/07/17 10:49:00;;;;;;;8.23;4.30;;;25.80;99.90;;;;;;5023436;28;20453;-71
2021/07/17 10:51:30;;;;;;;9.48;4.60;;;25.80;99.90;;;;;;5030550;28;20021;-71
2021/07/17 10:54:00;;;;;;;11.15;4.45;;;26.00;99.90;;;;;;5031760;28;20044;-71
2021/07/17 10:56:29;;;;;;;9.25;4.72;;;26.10;99.90;;;;;;5025537;28;20029;-71
2021/07/17 10:59:27;;;;;;;11.00;4.25;;;26.20;99.90;;;;;;5031421;28;20036;-71
2021/07/17 11:02:04;;;;;;;12.98;5.78;;;26.30;99.90;;;;;;5031798;28;20033;-72
2021/07/17 11:04:46;;;;;;;9.07;5.05;;;26.50;99.90;;;;;;5025274;28;20028;-72
2021/07/17 11:07:18;;;;;;;7.95;4.90;;;26.40;99.90;;;;;;5030636;28;20033;-72
2021/07/17 11:09:59;;;;;;;11.70;4.60;;;26.40;99.90;;;;;;5031581;28;20033;-72
2021/07/17 11:12:44;;;;;;;12.73;5.20;;;26.50;99.90;;;;;;5006159;28;20037;-71
2021/07/17 11:15:10;;;;;;;7.82;4.28;;;26.70;99.90;;;;;;5025579;28;20029;-72
2021/07/17 11:17:43;;;;;;;5.88;4.00;;;26.60;99.90;;;;;;5027091;28;20032;-72
2021/07/17 11:20:22;;;;;;;13.65;4.65;;;26.60;99.90;;;;;;5026710;28;20021;-72
2021/07/17 11:23:04;;;;;;;8.65;3.88;;;26.60;99.90;;;;;;5024907;28;20195;-72
2021/07/17 11:25:31;;;;;;;14.00;7.28;;;26.60;99.90;;;;;;5028450;28;20491;-72
2021/07/17 11:27:56;;;;;;;8.20;5.05;;;26.50;99.90;;;;;;5026660;28;20493;-72
2021/07/17 11:30:23;;;;;;;6.60;3.92;;;26.70;99.90;;;;;;5024477;28;20036;-72
2021/07/17 11:33:04;;;;;;;11.88;4.40;;;26.80;99.90;;;;;;5039818;28;20426;-73
2021/07/17 11:35:41;;;;;;;25.00;11.95;;;26.80;99.90;;;;;;5026726;28;20126;-72
2021/07/17 11:38:09;;;;;;;13.30;4.82;;;26.90;99.90;;;;;;5027858;28;20013;-72
2021/07/17 11:40:36;;;;;;;6.47;4.20;;;26.90;99.90;;;;;;5029315;28;20017;-72
2021/07/17 11:43:07;;;;;;;7.78;4.68;;;26.80;99.90;;;;;;5028313;28;20025;-72
2021/07/17 11:45:34;;;;;;;11.45;4.07;;;26.80;99.90;;;;;;5027952;28;20030;-72
2021/07/17 11:48:08;;;;;;;12.25;4.15;;;27.00;99.90;;;;;;5025511;28;20022;-71
2021/07/17 11:50:34;;;;;;;9.98;4.30;;;27.10;99.90;;;;;;5028192;28;20094;-72
2021/07/17 11:53:14;;;;;;;8.60;3.75;;;27.10;99.90;;;;;;5028554;28;20025;-73
2021/07/17 11:55:40;;;;;;;10.35;4.18;;;27.20;99.90;;;;;;5029586;28;20068;-72
2021/07/17 11:58:16;;;;;;;5.45;3.53;;;27.20;99.90;;;;;;5030489;28;20389;-72
2021/07/17 12:00:42;;;;;;;5.68;3.05;;;27.30;99.90;;;;;;5027911;28;20053;-72
2021/07/17 12:03:08;;;;;;;6.82;2.70;;;27.40;99.90;;;;;;5030838;28;20053;-72
2021/07/17 12:05:35;;;;;;;9.68;3.50;;;27.40;99.90;;;;;;5029393;28;20017;-72
2021/07/17 12:08:01;;;;;;;16.50;5.50;;;27.40;99.90;;;;;;5030835;28;20026;-72
2021/07/17 12:10:31;;;;;;;7.68;3.58;;;27.50;99.90;;;;;;5023976;28;20427;-73
2021/07/17 12:12:59;;;;;;;7.65;3.40;;;27.50;99.90;;;;;;5026503;28;20030;-72
2021/07/17 12:15:33;;;;;;;9.20;3.55;;;27.60;99.90;;;;;;5028637;28;20083;-72
2021/07/17 12:18:22;;;;;;;6.40;3.13;;;27.40;99.90;;;;;;5023036;28;20025;-79
2021/07/17 12:20:52;;;;;;;6.10;3.55;;;27.50;99.90;;;;;;5025152;28;20131;-75
2021/07/17 12:23:20;;;;;;;7.55;3.85;;;27.60;99.90;;;;;;5026805;28;20110;-76
2021/07/17 12:25:58;;;;;;;6.25;3.25;;;27.60;99.90;;;;;;5025132;28;20025;-75
2021/07/17 12:28:36;;;;;;;5.57;3.30;;;27.80;99.90;;;;;;5025711;28;20029;-78
2021/07/17 12:31:07;;;;;;;6.38;3.13;;;27.90;99.90;;;;;;5028488;28;20029;-77
2021/07/17 12:33:49;;;;;;;7.85;3.20;;;27.80;99.90;;;;;;5026883;28;20024;-77